EST,Max TemperatureF,Mean TemperatureF,Min TemperatureF,Max Dew PointF,MeanDew PointF,Min DewpointF,Max Humidity, Mean Humidity, Min Humidity, Max Sea Level PressureIn, Mean Sea Level PressureIn, Min Sea Level PressureIn, Max VisibilityMiles, Mean VisibilityMiles, Min VisibilityMiles, Max Wind SpeedMPH, Mean Wind SpeedMPH, Max Gust SpeedMPH,PrecipitationIn, CloudCover, Events, WindDirDegrees
2014-1-1,46,36,25,28,24,21,92,65,37,30.38,30.28,30.13,10,10,10,12,3,15,0.00,0,,159
2014-1-2,47,34,20,44,30,11,96,80,63,30.09,29.85,29.66,10,8,3,40,9,49,0.04,6,Rain-Snow,349
2014-1-3,27,20,12,14,6,0,80,56,32,30.43,30.19,29.94,10,8,1,37,13,45,T,4,Snow,346
2014-1-4,42,29,16,36,20,6,85,60,35,30.43,30.34,30.20,10,10,10,24,7,36,0.00,3,,156
2014-1-5,47,43,38,45,40,36,100,92,83,30.17,30.01,29.69,10,7,0,18,6,25,0.03,8,Fog-Rain,154
2014-1-6,45,24,2,43,19,-9,100,74,48,30.25,29.87,29.66,10,10,6,29,19,38,0.07,5,Rain-Snow,344
2014-1-7,20,10,-1,5,-6,-10,72,53,34,30.51,30.41,30.26,10,10,10,29,13,36,0.00,0,,347
2014-1-8,47,28,9,17,9,2,83,53,23,30.59,30.50,30.43,10,10,10,9,3,12,0.00,0,,341
2014-1-9,47,34,20,32,18,13,88,58,27,30.54,30.47,30.40,10,10,6,14,3,20,0.03,3,Rain,162
2014-1-10,50,42,34,47,39,33,100,95,89,30.41,30.26,30.04,10,3,0,9,3,12,0.52,8,Fog-Rain,172
2014-1-11,56,49,42,51,44,28,100,71,41,30.03,29.84,29.61,10,6,1,23,5,33,1.38,7,Rain,179
2014-1-12,54,43,31,31,29,26,82,59,35,30.17,30.03,29.82,10,10,10,17,5,24,0.00,0,,347
2014-1-13,54,41,27,40,32,26,92,67,41,30.13,30.02,29.89,10,9,0,18,6,25,T,4,Fog-Rain,171
2014-1-14,53,41,29,41,36,26,96,66,35,29.98,29.85,29.78,10,9,2,22,6,26,0.12,5,Rain,352
2014-1-15,37,31,25,31,26,15,92,78,63,29.99,29.94,29.89,10,9,2,22,10,29,T,5,Snow,341
2014-1-16,42,31,20,16,13,9,77,51,25,30.04,29.97,29.88,10,10,10,18,6,25,0.00,0,,325
2014-1-17,48,35,21,22,17,7,84,53,22,29.95,29.90,29.79,10,10,10,23,8,29,0.00,2,,242
2014-1-18,37,27,17,17,11,7,75,54,32,30.09,29.97,29.89,10,9,2,21,7,24,T,3,Snow,333
2014-1-19,49,35,21,23,19,8,77,56,34,30.02,29.95,29.89,10,10,10,20,5,23,0.00,1,,339
2014-1-20,62,44,25,25,21,16,75,47,19,29.94,29.88,29.82,10,10,10,20,8,23,0.00,0,,343
2014-1-21,48,33,17,30,23,9,85,62,39,29.90,29.73,29.62,10,8,1,25,11,36,T,5,Snow,344
2014-1-22,28,19,9,9,2,-4,73,51,29,30.08,29.99,29.87,10,10,10,31,13,40,0.00,2,,341
2014-1-23,31,20,9,8,4,-7,61,46,31,30.44,30.25,30.08,10,10,10,25,14,33,0.00,0,,346
2014-1-24,28,15,2,-2,-6,-11,75,48,21,30.60,30.44,30.19,10,10,10,25,7,32,0.00,0,,348
2014-1-25,37,25,13,23,8,-5,72,48,24,30.14,29.85,29.71,10,10,9,29,9,41,T,3,,310
2014-1-26,54,39,24,26,17,8,60,42,24,29.93,29.86,29.78,10,10,10,17,7,23,0.00,0,,267
2014-1-27,52,37,22,33,22,-2,78,55,32,30.09,29.91,29.83,10,10,10,29,13,40,0.00,2,,346
2014-1-28,22,19,16,18,12,-3,84,60,36,30.24,30.14,30.07,10,5,1,25,10,35,0.14,7,Snow,339
2014-1-29,27,18,8,9,0,-9,80,53,25,30.34,30.25,30.09,10,10,10,22,12,30,0.00,2,,347
2014-1-30,38,20,1,13,5,-2,87,57,27,30.38,30.29,30.19,10,10,10,13,3,20,0.00,0,,140
2014-1-31,54,34,14,18,13,9,88,53,18,30.23,30.18,30.11,10,10,10,15,4,16,0.00,0,,334